createdAt,value
2022-11-17T00:00:38.715Z,100.00
2022-11-17T00:03:05.175Z,100.00
2022-11-17T00:05:31.647Z,100.00
2022-11-17T00:07:58.225Z,100.00
2022-11-17T00:10:24.687Z,100.00
2022-11-17T00:13:10.069Z,100.00
2022-11-17T00:15:36.549Z,100.00
2022-11-17T00:18:21.514Z,100.00
2022-11-17T00:21:06.349Z,100.00
2022-11-17T00:23:48.076Z,100.00
2022-11-17T00:26:18.497Z,100.00
2022-11-17T00:28:45.262Z,100.00
2022-11-17T00:31:31.727Z,100.00
2022-11-17T00:34:07.308Z,100.00
2022-11-17T00:36:37.680Z,100.00
2022-11-17T00:39:05.242Z,100.00
2022-11-17T00:41:31.787Z,100.00
2022-11-17T00:43:58.414Z,100.00
2022-11-17T00:46:24.913Z,100.00
2022-11-17T00:48:51.397Z,100.00
2022-11-17T00:51:18.559Z,100.00
2022-11-17T00:53:45.049Z,100.00
2022-11-17T00:56:11.840Z,100.00
2022-11-17T00:58:38.313Z,100.00
2022-11-17T01:01:05.650Z,100.00
2022-11-17T01:03:34.688Z,100.00
2022-11-17T01:06:10.013Z,100.00
2022-11-17T01:08:36.787Z,100.00
2022-11-17T01:11:11.909Z,100.00
2022-11-17T01:13:39.893Z,100.00
2022-11-17T01:16:13.531Z,100.00
2022-11-17T01:18:41.228Z,100.00
2022-11-17T01:21:11.845Z,100.00
2022-11-17T01:23:41.495Z,100.00
2022-11-17T01:26:12.298Z,100.00
2022-11-17T01:28:39.478Z,100.00
2022-11-17T01:31:18.332Z,100.00
2022-11-17T01:33:45.456Z,100.00
2022-11-17T01:36:15.696Z,100.00
2022-11-17T01:38:42.885Z,100.00
2022-11-17T01:41:15.592Z,100.00
2022-11-17T01:43:48.552Z,100.00
2022-11-17T01:46:38.513Z,100.00
2022-11-17T01:49:15.908Z,100.00
2022-11-17T01:51:49.404Z,100.00
2022-11-17T01:54:21.270Z,100.00
2022-11-17T01:56:53.051Z,100.00
2022-11-17T01:59:40.173Z,100.00
2022-11-17T02:02:07.353Z,100.00
2022-11-17T02:04:49.573Z,100.00
2022-11-17T02:07:28.192Z,100.00
2022-11-17T02:09:56.166Z,100.00
2022-11-17T02:12:25.868Z,99.70
2022-11-17T02:14:53.603Z,99.68
2022-11-17T02:17:22.860Z,100.00
2022-11-17T02:20:12.427Z,98.40
2022-11-17T02:23:22.475Z,100.00
2022-11-17T02:26:00.509Z,99.92
2022-11-17T02:28:37.384Z,99.50
2022-11-17T02:31:22.641Z,100.00
2022-11-17T02:34:00.870Z,100.00
2022-11-17T02:36:35.459Z,98.89
2022-11-17T02:39:12.423Z,100.00
2022-11-17T02:41:55.807Z,97.98
2022-11-17T02:44:49.140Z,98.24
2022-11-17T02:47:20.980Z,99.53
2022-11-17T02:50:03.180Z,100.00
2022-11-17T02:52:30.771Z,100.00
2022-11-17T02:55:01.620Z,100.00
2022-11-17T02:57:32.708Z,99.26
2022-11-17T03:00:11.040Z,97.02
2022-11-17T03:02:46.520Z,96.97
2022-11-17T03:05:33.207Z,96.71
2022-11-17T03:08:05.617Z,95.75
2022-11-17T03:10:49.330Z,94.71
2022-11-17T03:13:26.322Z,94.25
2022-11-17T03:16:08.139Z,95.69
2022-11-17T03:18:55.790Z,94.99
2022-11-17T03:21:36.653Z,94.91
2022-11-17T03:24:12.550Z,95.98
2022-11-17T03:26:43.594Z,95.32
2022-11-17T03:29:14.668Z,93.49
2022-11-17T03:31:45.461Z,93.54
2022-11-17T03:34:16.256Z,94.61
2022-11-17T03:36:48.376Z,92.53
2022-11-17T03:39:26.741Z,91.99
2022-11-17T03:41:59.932Z,93.16
2022-11-17T03:44:30.367Z,95.69
2022-11-17T03:47:02.210Z,94.96
2022-11-17T03:49:31.736Z,94.32
2022-11-17T03:51:58.499Z,94.28
2022-11-17T03:54:25.166Z,95.61
2022-11-17T03:57:16.497Z,95.56
2022-11-17T03:59:55.328Z,95.15
2022-11-17T04:02:23.735Z,97.19
2022-11-17T04:05:05.745Z,100.00
2022-11-17T04:07:38.040Z,100.00
2022-11-17T04:10:05.400Z,100.00
2022-11-17T04:12:50.458Z,100.00
2022-11-17T04:15:35.890Z,100.00
2022-11-17T04:18:03.072Z,100.00
2022-11-17T04:20:35.863Z,100.00
2022-11-17T04:23:09.481Z,100.00
2022-11-17T04:25:56.711Z,100.00
2022-11-17T04:28:39.588Z,100.00
2022-11-17T04:31:13.208Z,100.00
2022-11-17T04:33:48.392Z,100.00
2022-11-17T04:36:17.886Z,100.00
2022-11-17T04:38:46.619Z,100.00
2022-11-17T04:41:33.728Z,100.00
2022-11-17T04:44:01.517Z,100.00
2022-11-17T04:46:30.387Z,100.00
2022-11-17T04:48:58.042Z,100.00
2022-11-17T04:51:25.514Z,100.00
2022-11-17T04:53:52.352Z,100.00
2022-11-17T04:56:20.419Z,100.00
2022-11-17T04:58:47.928Z,100.00
2022-11-17T05:01:16.500Z,100.00
2022-11-17T05:03:54.306Z,100.00
2022-11-17T05:06:34.125Z,100.00
2022-11-17T05:09:03.896Z,100.00
2022-11-17T05:11:48.998Z,100.00
2022-11-17T05:14:18.223Z,100.00
2022-11-17T05:17:08.975Z,100.00
2022-11-17T05:19:42.265Z,100.00
2022-11-17T05:22:27.965Z,100.00
2022-11-17T05:24:54.784Z,100.00
2022-11-17T05:27:22.478Z,100.00
2022-11-17T05:29:49.209Z,100.00
2022-11-17T05:32:16.142Z,100.00
2022-11-17T05:34:42.672Z,100.00
2022-11-17T05:37:09.136Z,100.00
2022-11-17T05:39:35.606Z,100.00
2022-11-17T05:42:02.087Z,100.00
2022-11-17T05:44:28.568Z,100.00
2022-11-17T05:46:55.008Z,100.00
2022-11-17T05:49:21.652Z,100.00
2022-11-17T05:51:52.487Z,100.00
2022-11-17T05:54:19.535Z,100.00
2022-11-17T05:57:19.751Z,100.00
2022-11-17T05:59:51.572Z,100.00
2022-11-17T06:02:23.521Z,100.00
2022-11-17T06:04:51.373Z,100.00
2022-11-17T06:07:18.590Z,100.00
2022-11-17T06:09:46.184Z,100.00
2022-11-17T06:12:12.881Z,100.00
2022-11-17T06:14:39.766Z,100.00
2022-11-17T06:17:12.817Z,100.00
2022-11-17T06:19:47.121Z,100.00
2022-11-17T06:22:13.926Z,100.00
2022-11-17T06:24:45.678Z,100.00
2022-11-17T06:27:15.557Z,100.00
2022-11-17T06:29:44.873Z,100.00
2022-11-17T06:32:15.510Z,100.00
2022-11-17T06:34:46.109Z,100.00
2022-11-17T06:37:14.464Z,100.00
2022-11-17T06:39:40.909Z,100.00
2022-11-17T06:42:07.365Z,99.86
2022-11-17T06:44:33.836Z,98.94
2022-11-17T06:47:00.352Z,98.13
2022-11-17T06:49:26.953Z,98.03
2022-11-17T06:51:53.629Z,98.09
2022-11-17T06:54:20.100Z,97.79
2022-11-17T06:56:46.794Z,97.08
2022-11-17T06:59:15.319Z,96.43
2022-11-17T07:01:41.753Z,96.34
2022-11-17T07:04:08.859Z,97.44
2022-11-17T07:06:38.758Z,96.09
2022-11-17T07:09:05.378Z,96.34
2022-11-17T07:11:35.839Z,96.51
2022-11-17T07:14:02.907Z,98.11
2022-11-17T07:16:30.660Z,99.08
2022-11-17T07:18:59.178Z,97.94
2022-11-17T07:21:25.731Z,97.70
2022-11-17T07:23:52.379Z,97.34
2022-11-17T07:26:18.799Z,97.00
2022-11-17T07:28:45.280Z,97.73
2022-11-17T07:31:11.794Z,95.95
2022-11-17T07:33:38.280Z,94.84
2022-11-17T07:36:10.130Z,94.44
2022-11-17T07:38:39.551Z,94.14
2022-11-17T07:41:07.723Z,93.19
2022-11-17T07:43:35.346Z,92.06
2022-11-17T07:46:06.347Z,91.30
2022-11-17T07:48:33.202Z,89.78
2022-11-17T07:51:00.772Z,91.54
2022-11-17T07:53:27.815Z,92.75
2022-11-17T07:55:54.772Z,92.26
2022-11-17T07:58:21.338Z,94.74
2022-11-17T08:00:47.829Z,95.26
2022-11-17T08:03:14.421Z,97.61
2022-11-17T08:05:43.585Z,97.46
2022-11-17T08:08:10.426Z,98.29
2022-11-17T08:10:36.995Z,100.00
2022-11-17T08:13:03.944Z,100.00
2022-11-17T08:15:31.279Z,100.00
2022-11-17T08:17:59.999Z,100.00
2022-11-17T08:20:28.628Z,100.00
2022-11-17T08:22:56.048Z,100.00
2022-11-17T08:25:24.675Z,100.00
2022-11-17T08:27:55.333Z,100.00
2022-11-17T08:30:22.932Z,100.00
2022-11-17T08:32:52.201Z,100.00
2022-11-17T08:35:20.549Z,100.00
2022-11-17T08:37:47.342Z,100.00
2022-11-17T08:40:14.854Z,98.82
2022-11-17T08:42:41.656Z,95.13
2022-11-17T08:45:08.820Z,93.82
2022-11-17T08:47:35.294Z,94.13
2022-11-17T08:50:01.883Z,94.10
2022-11-17T08:52:29.003Z,93.72
2022-11-17T08:54:55.626Z,91.82
2022-11-17T08:57:22.507Z,91.94
2022-11-17T08:59:49.603Z,93.25
2022-11-17T09:02:16.883Z,91.50
2022-11-17T09:04:45.490Z,92.79
2022-11-17T09:07:12.074Z,93.26
2022-11-17T09:09:38.652Z,93.08
2022-11-17T09:12:05.416Z,94.88
2022-11-17T09:14:31.880Z,95.77
2022-11-17T09:16:58.333Z,95.67
2022-11-17T09:19:24.847Z,99.10
2022-11-17T09:21:51.376Z,100.00
2022-11-17T09:24:17.870Z,100.00
2022-11-17T09:26:44.568Z,99.35
2022-11-17T09:29:11.164Z,98.37
2022-11-17T09:31:37.822Z,96.84
2022-11-17T09:34:05.799Z,98.55
2022-11-17T09:36:33.360Z,97.50
2022-11-17T09:38:59.853Z,95.74
2022-11-17T09:41:47.425Z,95.00
2022-11-17T09:44:27.041Z,96.85
2022-11-17T09:47:00.735Z,96.37
2022-11-17T09:50:03.453Z,96.04
2022-11-17T09:52:43.399Z,95.71
2022-11-17T09:55:15.990Z,96.75
2022-11-17T09:57:47.034Z,97.39
2022-11-17T10:00:23.067Z,98.90
2022-11-17T10:02:51.172Z,99.86
2022-11-17T10:05:28.763Z,99.46
2022-11-17T10:08:03.434Z,99.33
2022-11-17T10:10:51.430Z,98.45
2022-11-17T10:13:28.246Z,99.09
2022-11-17T10:16:00.745Z,99.58
2022-11-17T10:18:32.506Z,99.60
2022-11-17T10:21:01.706Z,100.00
2022-11-17T10:23:41.284Z,99.69
2022-11-17T10:26:14.017Z,99.44
2022-11-17T10:28:40.931Z,100.00
2022-11-17T10:31:13.724Z,100.00
2022-11-17T10:33:49.563Z,100.00
2022-11-17T10:36:28.761Z,100.00
2022-11-17T10:38:57.591Z,100.00
2022-11-17T10:41:30.483Z,100.00
2022-11-17T10:43:59.919Z,100.00
2022-11-17T10:46:28.714Z,100.00
2022-11-17T10:49:03.159Z,100.00
2022-11-17T10:51:33.968Z,99.85
2022-11-17T10:54:03.474Z,99.11
2022-11-17T10:56:32.696Z,99.29
2022-11-17T10:59:07.885Z,95.66
2022-11-17T11:01:40.007Z,98.18
2022-11-17T11:04:25.757Z,99.85
2022-11-17T11:07:10.340Z,100.00
2022-11-17T11:09:45.326Z,100.00
2022-11-17T11:12:18.895Z,100.00
2022-11-17T11:14:52.590Z,100.00
2022-11-17T11:17:20.276Z,100.00
2022-11-17T11:19:52.264Z,100.00
2022-11-17T11:22:33.017Z,100.00
2022-11-17T11:25:29.796Z,100.00
2022-11-17T11:28:10.857Z,100.00
2022-11-17T11:31:04.941Z,100.00
2022-11-17T11:33:36.920Z,100.00
2022-11-17T11:36:48.359Z,100.00
2022-11-17T11:39:24.980Z,100.00
2022-11-17T11:42:10.272Z,100.00
2022-11-17T11:45:03.547Z,100.00
2022-11-17T11:47:57.183Z,100.00
2022-11-17T11:50:30.505Z,100.00
2022-11-17T11:53:09.483Z,100.00
2022-11-17T11:55:42.814Z,100.00
2022-11-17T11:58:23.415Z,100.00
2022-11-17T12:01:09.130Z,100.00
2022-11-17T12:03:50.083Z,100.00
2022-11-17T12:06:53.951Z,100.00
2022-11-17T12:09:48.758Z,100.00
2022-11-17T12:12:18.390Z,100.00
2022-11-17T12:15:09.056Z,100.00
2022-11-17T12:17:37.122Z,100.00
2022-11-17T12:20:46.901Z,100.00
2022-11-17T12:23:35.847Z,100.00
2022-11-17T12:26:02.948Z,100.00
2022-11-17T12:28:31.368Z,100.00
2022-11-17T12:31:05.123Z,100.00
2022-11-17T12:33:52.923Z,100.00
2022-11-17T12:36:32.488Z,100.00
2022-11-17T12:39:04.814Z,100.00
2022-11-17T12:41:49.792Z,100.00
2022-11-17T12:44:38.347Z,100.00
2022-11-17T12:47:18.845Z,100.00
2022-11-17T12:50:10.776Z,100.00
2022-11-17T12:53:05.002Z,100.00
2022-11-17T12:55:34.539Z,100.00
2022-11-17T12:58:34.470Z,100.00
2022-11-17T13:01:22.402Z,100.00
2022-11-17T13:04:08.375Z,100.00
2022-11-17T13:06:36.593Z,100.00
2022-11-17T13:09:12.378Z,100.00
2022-11-17T13:11:38.890Z,100.00
2022-11-17T13:14:16.940Z,100.00
2022-11-17T13:16:46.995Z,100.00
2022-11-17T13:19:33.509Z,100.00
2022-11-17T13:22:20.347Z,100.00
2022-11-17T13:24:49.646Z,100.00
2022-11-17T13:27:28.244Z,100.00
2022-11-17T13:30:13.914Z,100.00
2022-11-17T13:32:41.708Z,100.00
2022-11-17T13:35:28.435Z,100.00
2022-11-17T13:38:19.733Z,100.00
2022-11-17T13:40:47.699Z,100.00
2022-11-17T13:43:18.276Z,100.00
2022-11-17T13:45:45.777Z,100.00
2022-11-17T13:48:42.962Z,100.00
2022-11-17T13:51:24.869Z,100.00
2022-11-17T13:54:05.334Z,100.00
2022-11-17T13:56:34.389Z,100.00
2022-11-17T13:59:05.124Z,100.00
2022-11-17T14:01:33.037Z,100.00
2022-11-17T14:04:22.611Z,100.00
2022-11-17T14:06:57.616Z,100.00
2022-11-17T14:09:26.205Z,100.00
2022-11-17T14:11:52.882Z,100.00
2022-11-17T14:14:30.520Z,100.00
2022-11-17T14:16:58.034Z,100.00
2022-11-17T14:19:33.392Z,100.00
2022-11-17T14:22:27.694Z,100.00
2022-11-17T14:24:57.637Z,100.00
2022-11-17T14:27:27.111Z,100.00
2022-11-17T14:29:53.554Z,100.00
2022-11-17T14:32:19.981Z,100.00
2022-11-17T14:34:46.431Z,100.00
2022-11-17T14:37:12.940Z,100.00
2022-11-17T14:39:39.531Z,100.00
2022-11-17T14:42:05.962Z,100.00
2022-11-17T14:44:32.435Z,100.00
2022-11-17T14:46:58.872Z,100.00
2022-11-17T14:49:25.429Z,100.00
2022-11-17T14:51:53.073Z,100.00
2022-11-17T14:54:19.638Z,100.00
2022-11-17T14:56:46.098Z,100.00
2022-11-17T14:59:13.468Z,100.00
2022-11-17T15:01:41.026Z,100.00
2022-11-17T15:04:34.469Z,100.00
2022-11-17T15:06:54.089Z,100.00
2022-11-17T15:09:20.940Z,100.00
2022-11-17T15:11:48.096Z,100.00
2022-11-17T15:14:15.039Z,100.00
2022-11-17T15:16:41.776Z,100.00
2022-11-17T15:19:08.256Z,100.00
2022-11-17T15:21:34.806Z,100.00
2022-11-17T15:24:03.336Z,100.00
2022-11-17T15:26:29.862Z,100.00
2022-11-17T15:28:57.866Z,100.00
2022-11-17T15:31:24.362Z,100.00
2022-11-17T15:33:50.819Z,100.00
2022-11-17T15:36:19.380Z,100.00
2022-11-17T15:38:47.399Z,100.00
2022-11-17T15:41:15.064Z,100.00
2022-11-17T15:43:43.414Z,100.00
2022-11-17T15:46:15.374Z,100.00
2022-11-17T15:48:44.476Z,100.00
2022-11-17T15:51:13.666Z,100.00
2022-11-17T15:53:41.478Z,100.00
2022-11-17T15:56:11.366Z,100.00
2022-11-17T15:58:39.426Z,100.00
2022-11-17T16:01:33.349Z,100.00
2022-11-17T16:04:01.385Z,100.00
2022-11-17T16:06:29.146Z,100.00
2022-11-17T16:08:55.754Z,100.00
2022-11-17T16:11:22.565Z,100.00
2022-11-17T16:13:53.156Z,100.00
2022-11-17T16:16:20.361Z,100.00
2022-11-17T16:18:46.856Z,100.00
2022-11-17T16:21:14.704Z,100.00
2022-11-17T16:23:54.476Z,100.00
2022-11-17T16:26:22.185Z,100.00
2022-11-17T16:28:48.720Z,100.00
2022-11-17T16:31:27.035Z,100.00
2022-11-17T16:34:05.211Z,100.00
2022-11-17T16:36:36.749Z,100.00
2022-11-17T16:39:09.555Z,100.00
2022-11-17T16:41:38.768Z,100.00
2022-11-17T16:44:11.783Z,100.00
2022-11-17T16:46:41.017Z,100.00
2022-11-17T16:49:10.950Z,100.00
2022-11-17T16:51:37.848Z,100.00
2022-11-17T16:54:06.599Z,100.00
2022-11-17T16:56:34.084Z,100.00
2022-11-17T16:59:00.921Z,100.00
2022-11-17T17:01:30.466Z,100.00
2022-11-17T17:03:59.300Z,100.00
2022-11-17T17:06:26.254Z,100.00
2022-11-17T17:08:54.749Z,100.00
2022-11-17T17:11:21.752Z,100.00
2022-11-17T17:13:48.307Z,100.00
2022-11-17T17:16:18.097Z,100.00
2022-11-17T17:18:44.680Z,100.00
2022-11-17T17:21:17.568Z,100.00
2022-11-17T17:23:45.574Z,100.00
2022-11-17T17:26:16.572Z,100.00
2022-11-17T17:28:44.626Z,100.00
2022-11-17T17:31:16.778Z,100.00
2022-11-17T17:33:47.720Z,100.00
2022-11-17T17:36:16.306Z,100.00
2022-11-17T17:38:43.208Z,100.00
2022-11-17T17:41:15.332Z,100.00
2022-11-17T17:43:43.293Z,100.00
2022-11-17T17:46:16.886Z,100.00
2022-11-17T17:48:45.179Z,100.00
2022-11-17T17:51:17.597Z,100.00
2022-11-17T17:53:44.810Z,100.00
2022-11-17T17:56:13.541Z,100.00
2022-11-17T17:58:41.154Z,100.00
2022-11-17T18:01:33.104Z,100.00
2022-11-17T18:04:04.459Z,100.00
2022-11-17T18:06:38.518Z,100.00
2022-11-17T18:09:06.874Z,100.00
2022-11-17T18:11:34.061Z,100.00
2022-11-17T18:14:00.765Z,100.00
2022-11-17T18:16:29.862Z,100.00
2022-11-17T18:19:02.174Z,100.00
2022-11-17T18:21:29.926Z,100.00
2022-11-17T18:23:58.413Z,100.00
2022-11-17T18:26:27.749Z,100.00
2022-11-17T18:28:56.544Z,100.00
2022-11-17T18:31:25.541Z,100.00
2022-11-17T18:33:53.995Z,100.00
2022-11-17T18:36:21.675Z,100.00
2022-11-17T18:38:49.057Z,100.00
2022-11-17T18:41:16.992Z,100.00
2022-11-17T18:43:44.326Z,100.00
2022-11-17T18:46:13.766Z,100.00
2022-11-17T18:48:42.253Z,100.00
2022-11-17T18:51:21.377Z,100.00
2022-11-17T18:53:49.767Z,100.00
2022-11-17T18:56:19.491Z,100.00
2022-11-17T18:58:46.633Z,100.00
2022-11-17T19:01:22.232Z,100.00
2022-11-17T19:03:52.528Z,100.00
2022-11-17T19:06:20.597Z,100.00
2022-11-17T19:08:48.376Z,100.00
2022-11-17T19:11:17.141Z,100.00
2022-11-17T19:13:44.966Z,100.00
2022-11-17T19:16:17.356Z,100.00
2022-11-17T19:18:45.277Z,100.00
2022-11-17T19:21:19.216Z,100.00
2022-11-17T19:23:51.406Z,100.00
2022-11-17T19:26:24.886Z,100.00
2022-11-17T19:28:58.837Z,100.00
2022-11-17T19:31:26.477Z,100.00
2022-11-17T19:33:54.226Z,100.00
2022-11-17T19:36:31.803Z,100.00
2022-11-17T19:39:00.445Z,100.00
2022-11-17T19:41:27.059Z,100.00
2022-11-17T19:43:54.877Z,100.00
2022-11-17T19:46:22.765Z,100.00
2022-11-17T19:48:49.787Z,100.00
2022-11-17T19:51:16.477Z,100.00
2022-11-17T19:53:43.368Z,100.00
2022-11-17T19:56:10.237Z,100.00
2022-11-17T19:58:37.009Z,100.00
2022-11-17T20:01:22.337Z,100.00
2022-11-17T20:03:49.915Z,100.00
2022-11-17T20:06:19.137Z,100.00
2022-11-17T20:08:46.515Z,100.00
2022-11-17T20:11:16.600Z,100.00
2022-11-17T20:13:43.324Z,100.00
2022-11-17T20:16:21.439Z,100.00
2022-11-17T20:18:53.589Z,100.00
2022-11-17T20:21:20.526Z,100.00
2022-11-17T20:23:47.444Z,100.00
2022-11-17T20:26:20.559Z,100.00
2022-11-17T20:28:47.932Z,100.00
2022-11-17T20:31:24.387Z,100.00
2022-11-17T20:33:52.174Z,100.00
2022-11-17T20:36:20.942Z,100.00
2022-11-17T20:38:56.416Z,100.00
2022-11-17T20:41:23.608Z,100.00
2022-11-17T20:43:51.605Z,100.00
2022-11-17T20:46:18.633Z,100.00
2022-11-17T20:48:45.766Z,100.00
2022-11-17T20:51:16.217Z,100.00
2022-11-17T20:53:43.151Z,100.00
2022-11-17T20:56:12.124Z,100.00
2022-11-17T20:58:38.860Z,100.00
2022-11-17T21:01:14.541Z,100.00
2022-11-17T21:03:41.613Z,100.00
2022-11-17T21:06:08.937Z,100.00
2022-11-17T21:08:38.053Z,100.00
2022-11-17T21:11:07.682Z,100.00
2022-11-17T21:13:35.645Z,100.00
2022-11-17T21:16:15.536Z,100.00
2022-11-17T21:18:47.914Z,100.00
2022-11-17T21:21:46.150Z,100.00
2022-11-17T21:24:13.636Z,100.00
2022-11-17T21:26:40.348Z,100.00
2022-11-17T21:29:07.210Z,100.00
2022-11-17T21:31:34.906Z,100.00
2022-11-17T21:34:04.433Z,100.00
2022-11-17T21:36:32.608Z,100.00
2022-11-17T21:38:59.761Z,100.00
2022-11-17T21:41:29.619Z,100.00
2022-11-17T21:43:59.977Z,100.00
2022-11-17T21:46:29.305Z,100.00
2022-11-17T21:48:57.802Z,100.00
2022-11-17T21:51:33.074Z,100.00
2022-11-17T21:54:01.855Z,100.00
2022-11-17T21:56:29.399Z,100.00
2022-11-17T21:58:57.354Z,100.00
2022-11-17T22:01:24.369Z,100.00
2022-11-17T22:03:51.440Z,100.00
2022-11-17T22:06:20.392Z,100.00
2022-11-17T22:08:48.059Z,100.00
2022-11-17T22:11:34.819Z,100.00
2022-11-17T22:14:16.518Z,100.00
2022-11-17T22:16:52.064Z,100.00
2022-11-17T22:19:20.698Z,100.00
2022-11-17T22:21:49.664Z,100.00
2022-11-17T22:24:16.286Z,100.00
2022-11-17T22:26:43.974Z,100.00
2022-11-17T22:29:17.070Z,100.00
2022-11-17T22:31:45.165Z,100.00
2022-11-17T22:34:12.984Z,100.00
2022-11-17T22:36:40.044Z,100.00
2022-11-17T22:39:07.475Z,100.00
2022-11-17T22:41:34.935Z,100.00
2022-11-17T22:44:01.471Z,100.00
2022-11-17T22:46:28.692Z,100.00
2022-11-17T22:48:55.940Z,100.00
2022-11-17T22:51:41.109Z,100.00
2022-11-17T22:54:08.507Z,100.00
2022-11-17T22:56:35.938Z,100.00
2022-11-17T22:59:02.644Z,100.00
2022-11-17T23:01:29.200Z,100.00
2022-11-17T23:03:55.753Z,100.00
2022-11-17T23:06:22.985Z,100.00
2022-11-17T23:08:50.408Z,100.00
2022-11-17T23:14:06.757Z,100.00
2022-11-17T23:16:33.408Z,100.00
2022-11-17T23:19:00.340Z,100.00
2022-11-17T23:21:27.133Z,100.00
2022-11-17T23:23:53.762Z,100.00
2022-11-17T23:26:20.645Z,100.00
2022-11-17T23:28:47.345Z,100.00
2022-11-17T23:31:16.235Z,100.00
2022-11-17T23:33:45.363Z,100.00
2022-11-17T23:36:15.031Z,100.00
2022-11-17T23:38:42.344Z,100.00
2022-11-17T23:41:12.084Z,100.00
2022-11-17T23:43:39.588Z,100.00
2022-11-17T23:46:14.445Z,100.00
2022-11-17T23:48:41.931Z,100.00
2022-11-17T23:51:13.650Z,100.00
2022-11-17T23:53:40.851Z,100.00
2022-11-17T23:56:08.342Z,100.00
2022-11-17T23:58:34.941Z,100.00
